Time;durP1;ratioP1;P1;durP2;ratioP2;P2;SDS_P1;SDS_P2;PMS_P1;PMS_P2;Temp;Humidity;BMP_temperature;BMP_pressure;BME280_temperature;BME280_humidity;BME280_pressure;Samples;Min_cycle;Max_cycle;Signal;HPM_P1;HPM_P2
2021/03/11 00:00:20;;;;;;;40.05;21.27;;;7.30;99.90;;;;;;5070824;28;20029;-59
2021/03/11 00:02:45;;;;;;;34.58;20.33;;;7.20;99.90;;;;;;5063211;28;20028;-61
2021/03/11 00:05:13;;;;;;;40.88;22.85;;;7.30;99.90;;;;;;5066740;28;20028;-60
2021/03/11 00:07:39;;;;;;;35.83;20.63;;;7.40;99.90;;;;;;5055342;28;20067;-59
2021/03/11 00:10:10;;;;;;;36.58;21.45;;;7.40;99.90;;;;;;5068621;28;20028;-59
2021/03/11 00:12:43;;;;;;;32.38;20.73;;;7.40;99.90;;;;;;5069519;28;20029;-60
2021/03/11 00:15:16;;;;;;;34.28;20.75;;;7.40;99.90;;;;;;5085154;28;20089;-58
2021/03/11 00:17:42;;;;;;;34.85;21.38;;;7.50;99.90;;;;;;5099475;28;20541;-63
2021/03/11 00:20:14;;;;;;;31.95;19.13;;;7.50;99.90;;;;;;5094888;28;20515;-62
2021/03/11 00:22:41;;;;;;;33.65;21.33;;;7.50;99.90;;;;;;5094275;28;20020;-60
2021/03/11 00:25:12;;;;;;;39.45;22.02;;;7.50;99.90;;;;;;5094710;28;20523;-61
2021/03/11 00:27:38;;;;;;;33.58;20.73;;;7.50;99.90;;;;;;5077084;28;20028;-61
2021/03/11 00:30:05;;;;;;;34.80;22.15;;;7.50;99.90;;;;;;5086712;28;20027;-59
2021/03/11 00:32:31;;;;;;;32.92;20.40;;;7.60;99.90;;;;;;5080852;28;20073;-61
2021/03/11 00:34:57;;;;;;;40.92;23.00;;;7.60;99.90;;;;;;5079397;28;20494;-61
2021/03/11 00:37:22;;;;;;;41.40;22.88;;;7.60;99.90;;;;;;5088727;28;20102;-60
2021/03/11 00:39:48;;;;;;;40.55;21.77;;;7.60;99.90;;;;;;5075058;28;20032;-60
2021/03/11 00:42:13;;;;;;;44.92;23.95;;;7.60;99.90;;;;;;5091082;28;20033;-58
2021/03/11 00:44:39;;;;;;;41.22;22.58;;;7.60;99.90;;;;;;5075563;28;20032;-60
2021/03/11 00:47:06;;;;;;;42.60;24.15;;;7.60;99.90;;;;;;5084400;28;20494;-59
2021/03/11 00:49:32;;;;;;;40.63;23.65;;;7.60;99.90;;;;;;5094218;28;20024;-61
2021/03/11 00:51:57;;;;;;;49.20;26.30;;;7.60;99.90;;;;;;5080336;28;20797;-61
2021/03/11 00:54:23;;;;;;;43.97;24.73;;;7.60;99.90;;;;;;5090525;28;20427;-60
2021/03/11 00:56:49;;;;;;;43.13;25.10;;;7.60;99.90;;;;;;5088493;28;20137;-62
2021/03/11 00:59:14;;;;;;;50.08;26.25;;;7.60;99.90;;;;;;5094081;28;20027;-60
2021/03/11 01:01:40;;;;;;;46.97;26.08;;;7.60;99.90;;;;;;5085007;28;20047;-60
2021/03/11 01:04:06;;;;;;;50.03;27.67;;;7.60;99.90;;;;;;5084632;28;20476;-60
2021/03/11 01:06:32;;;;;;;54.08;30.17;;;7.60;99.90;;;;;;5087051;28;20020;-60
2021/03/11 01:08:58;;;;;;;55.20;31.63;;;7.60;99.90;;;;;;5087705;28;20083;-60
2021/03/11 01:11:23;;;;;;;53.88;31.65;;;7.60;99.90;;;;;;5089913;28;20442;-60
2021/03/11 01:13:49;;;;;;;55.72;31.05;;;7.60;99.90;;;;;;5087686;22;22645;-67
2021/03/11 01:16:15;;;;;;;56.97;33.15;;;7.60;99.90;;;;;;5040818;28;20091;-69
2021/03/11 01:18:40;;;;;;;59.00;32.10;;;7.60;99.90;;;;;;5037666;28;20033;-68
2021/03/11 01:21:06;;;;;;;58.42;32.33;;;7.60;99.90;;;;;;5044210;28;20072;-67
2021/03/11 01:23:31;;;;;;;58.05;31.50;;;7.60;99.90;;;;;;5029431;28;20024;-72
2021/03/11 01:25:57;;;;;;;58.92;33.08;;;7.60;99.90;;;;;;5043241;28;20108;-69
2021/03/11 01:28:23;;;;;;;58.53;34.17;;;7.60;99.90;;;;;;5051866;28;20095;-68
2021/03/11 01:30:48;;;;;;;53.35;31.85;;;7.60;99.90;;;;;;5064889;28;20048;-70
2021/03/11 01:33:14;;;;;;;55.05;31.33;;;7.60;99.90;;;;;;5032340;28;20119;-69
2021/03/11 01:35:40;;;;;;;50.78;28.77;;;7.70;99.90;;;;;;5047058;28;20502;-70
2021/03/11 01:38:06;;;;;;;51.60;29.50;;;7.70;99.90;;;;;;5050551;28;20029;-68
2021/03/11 01:40:33;;;;;;;48.80;28.85;;;7.70;99.90;;;;;;5036438;28;20052;-68
2021/03/11 01:43:01;;;;;;;50.00;29.08;;;7.70;99.90;;;;;;5049683;28;20053;-69
2021/03/11 01:45:27;;;;;;;49.38;28.52;;;7.70;99.90;;;;;;5039199;28;20042;-69
2021/03/11 01:47:53;;;;;;;47.72;28.58;;;7.80;99.90;;;;;;5069125;28;20108;-70
2021/03/11 01:50:20;;;;;;;50.75;30.08;;;7.80;99.90;;;;;;5042580;28;20040;-67
2021/03/11 01:52:46;;;;;;;53.60;30.45;;;7.80;99.90;;;;;;5044944;28;20590;-68
2021/03/11 01:55:13;;;;;;;51.67;31.08;;;7.80;99.90;;;;;;5050964;28;20068;-66
2021/03/11 01:57:39;;;;;;;48.83;30.13;;;7.90;99.90;;;;;;5054482;28;20031;-68
2021/03/11 02:00:08;;;;;;;48.00;28.98;;;7.90;99.90;;;;;;5036816;28;20462;-68
2021/03/11 02:02:34;;;;;;;55.83;30.98;;;7.90;99.90;;;;;;5048517;28;20385;-69
2021/03/11 02:04:59;;;;;;;49.33;29.58;;;7.90;99.90;;;;;;5052296;28;20052;-68
2021/03/11 02:07:25;;;;;;;50.60;29.60;;;7.90;99.90;;;;;;5043770;28;20371;-69
2021/03/11 02:09:51;;;;;;;55.28;29.13;;;8.00;99.90;;;;;;5047753;28;20079;-69
2021/03/11 02:12:55;;;;;;;44.60;27.15;;;8.00;99.90;;;;;;5057043;28;20021;-73
2021/03/11 02:15:34;;;;;;;44.00;26.85;;;8.00;99.90;;;;;;5049486;28;20056;-71
2021/03/11 02:18:12;;;;;;;46.28;26.38;;;8.10;99.90;;;;;;5053024;28;20033;-73
2021/03/11 02:20:46;;;;;;;42.03;26.77;;;8.20;99.90;;;;;;5037410;28;20074;-72
2021/03/11 02:23:35;;;;;;;43.95;25.33;;;8.20;99.90;;;;;;5049820;28;20427;-67
2021/03/11 02:26:23;;;;;;;45.83;26.65;;;8.30;99.90;;;;;;5052550;28;20098;-70
2021/03/11 02:29:07;;;;;;;39.92;24.23;;;8.30;99.90;;;;;;5055486;28;20037;-70
2021/03/11 02:31:36;;;;;;;43.95;25.73;;;8.30;99.90;;;;;;5052364;28;20035;-70
2021/03/11 02:34:06;;;;;;;40.20;24.15;;;8.40;99.90;;;;;;5026145;28;20120;-69
2021/03/11 02:36:32;;;;;;;39.65;24.08;;;8.40;99.90;;;;;;5039041;28;20114;-71
2021/03/11 02:39:00;;;;;;;39.25;24.08;;;8.50;99.90;;;;;;5036941;28;20658;-70
2021/03/11 02:41:27;;;;;;;39.53;24.35;;;8.50;99.90;;;;;;5036017;28;20537;-68
2021/03/11 02:43:54;;;;;;;38.22;23.75;;;8.40;99.90;;;;;;5045922;28;20491;-70
2021/03/11 02:46:21;;;;;;;41.65;24.52;;;8.50;99.90;;;;;;5034735;28;20104;-69
2021/03/11 02:48:50;;;;;;;36.78;22.00;;;8.50;99.90;;;;;;5033246;28;20041;-70
2021/03/11 02:51:17;;;;;;;36.17;23.65;;;8.50;99.90;;;;;;5034757;28;20009;-69
2021/03/11 02:53:44;;;;;;;34.58;21.67;;;8.50;99.90;;;;;;5042339;28;20042;-69
2021/03/11 02:56:10;;;;;;;39.70;23.63;;;8.60;99.90;;;;;;5057865;28;20012;-70
2021/03/11 02:58:40;;;;;;;43.47;24.75;;;8.60;99.90;;;;;;5052149;28;20039;-71
2021/03/11 03:01:14;;;;;;;44.85;24.40;;;8.50;99.90;;;;;;5049764;28;20028;-71
2021/03/11 03:03:41;;;;;;;39.30;24.30;;;8.50;99.90;;;;;;5029628;28;20033;-71
2021/03/11 03:06:06;;;;;;;45.28;25.30;;;8.50;99.90;;;;;;5044659;28;20116;-70
2021/03/11 03:08:33;;;;;;;37.70;23.75;;;8.50;99.90;;;;;;5050056;28;20029;-69
2021/03/11 03:10:59;;;;;;;35.78;23.17;;;8.60;99.90;;;;;;5046254;28;20033;-71
2021/03/11 03:13:25;;;;;;;39.10;23.92;;;8.60;99.90;;;;;;5032814;28;20371;-67
2021/03/11 03:15:56;;;;;;;39.80;23.05;;;8.60;99.90;;;;;;5048484;28;20087;-66
2021/03/11 03:18:22;;;;;;;42.80;22.70;;;8.60;99.90;;;;;;5060755;28;20111;-67
2021/03/11 03:20:49;;;;;;;36.80;21.75;;;8.70;99.90;;;;;;5046424;28;20025;-68
2021/03/11 03:23:15;;;;;;;33.42;20.67;;;8.70;99.90;;;;;;5046105;28;20033;-70
2021/03/11 03:25:40;;;;;;;36.22;21.67;;;8.80;99.90;;;;;;5033601;28;20044;-70
2021/03/11 03:28:06;;;;;;;32.47;19.80;;;8.80;99.90;;;;;;5048796;28;20079;-70
2021/03/11 03:30:32;;;;;;;32.25;19.80;;;8.80;99.90;;;;;;5049455;28;20025;-68
2021/03/11 03:32:57;;;;;;;33.30;19.33;;;8.90;99.90;;;;;;5048534;28;20029;-71
2021/03/11 03:35:23;;;;;;;31.48;18.08;;;9.00;99.90;;;;;;5044395;28;20032;-70
2021/03/11 03:37:50;;;;;;;28.65;16.40;;;9.00;99.90;;;;;;5044860;28;20026;-70
2021/03/11 03:40:17;;;;;;;27.38;16.23;;;9.10;99.90;;;;;;5041460;28;20044;-70
2021/03/11 03:42:55;;;;;;;29.33;16.30;;;9.20;99.90;;;;;;5045020;28;20059;-69
2021/03/11 03:45:25;;;;;;;22.65;14.95;;;9.20;99.90;;;;;;5047469;28;20454;-70
2021/03/11 03:47:51;;;;;;;22.98;15.18;;;9.30;99.90;;;;;;5049171;28;20029;-69
2021/03/11 03:50:19;;;;;;;25.13;15.10;;;9.40;99.90;;;;;;5029010;28;20029;-70
2021/03/11 03:52:47;;;;;;;24.95;14.20;;;9.30;99.90;;;;;;5043818;28;20035;-69
2021/03/11 03:55:15;;;;;;;24.83;14.48;;;9.40;99.90;;;;;;5043244;28;20029;-68
2021/03/11 03:57:45;;;;;;;21.73;13.13;;;9.40;99.90;;;;;;5042390;28;20022;-69
2021/03/11 04:00:13;;;;;;;24.45;13.40;;;9.40;99.90;;;;;;5027099;28;20490;-70
2021/03/11 04:02:40;;;;;;;21.45;13.32;;;9.40;99.90;;;;;;5052664;28;20024;-70
2021/03/11 04:05:07;;;;;;;22.15;13.68;;;9.40;99.90;;;;;;5043870;28;20051;-69
2021/03/11 04:07:33;;;;;;;25.33;14.95;;;9.40;99.90;;;;;;5048637;28;20095;-65
2021/03/11 04:09:59;;;;;;;21.60;12.77;;;9.50;99.90;;;;;;5040517;28;20478;-67
2021/03/11 04:12:26;;;;;;;23.85;12.75;;;9.40;99.90;;;;;;5033166;28;20298;-69
2021/03/11 04:14:52;;;;;;;26.05;13.23;;;9.40;99.90;;;;;;5047502;28;20622;-68
2021/03/11 04:17:18;;;;;;;21.50;13.82;;;9.40;99.90;;;;;;5044535;28;20393;-68
2021/03/11 04:19:44;;;;;;;20.00;12.20;;;9.50;99.90;;;;;;5058084;28;20499;-69
2021/03/11 04:22:10;;;;;;;20.33;12.18;;;9.60;99.90;;;;;;5057213;28;20401;-69
2021/03/11 04:24:37;;;;;;;19.42;12.20;;;9.60;99.90;;;;;;5047400;28;20032;-66
2021/03/11 04:27:06;;;;;;;21.05;11.70;;;9.60;99.90;;;;;;5016516;28;20390;-69
2021/03/11 04:29:32;;;;;;;19.00;10.90;;;9.60;99.90;;;;;;5027695;28;20123;-69
2021/03/11 04:31:58;;;;;;;22.48;11.10;;;9.80;99.90;;;;;;5055901;28;20148;-69
2021/03/11 04:34:24;;;;;;;16.77;10.40;;;9.80;99.90;;;;;;5040455;28;20041;-65
2021/03/11 04:36:51;;;;;;;23.08;10.88;;;9.80;99.90;;;;;;5033961;28;20071;-67
2021/03/11 04:39:19;;;;;;;14.48;9.85;;;9.80;99.90;;;;;;5030805;28;20106;-68
2021/03/11 04:41:47;;;;;;;17.13;9.98;;;9.80;99.90;;;;;;5049550;28;20026;-68
2021/03/11 04:44:14;;;;;;;19.45;11.20;;;9.80;99.90;;;;;;5043839;28;20037;-67
2021/03/11 04:46:40;;;;;;;17.30;10.75;;;9.90;99.90;;;;;;5047844;28;20025;-69
2021/03/11 04:49:11;;;;;;;18.60;10.15;;;9.90;99.90;;;;;;5023804;28;20548;-71
2021/03/11 04:51:38;;;;;;;16.98;9.27;;;10.00;99.90;;;;;;5018616;28;20026;-67
2021/03/11 04:54:04;;;;;;;15.93;10.02;;;10.00;99.90;;;;;;5052304;28;20466;-68
2021/03/11 04:56:29;;;;;;;14.75;9.77;;;10.00;99.90;;;;;;5044354;28;20052;-69
2021/03/11 04:58:55;;;;;;;16.20;9.02;;;10.10;99.90;;;;;;5039231;28;20120;-69
2021/03/11 05:01:25;;;;;;;14.73;8.70;;;10.10;99.90;;;;;;5024410;28;20032;-70
2021/03/11 05:03:52;;;;;;;14.43;9.20;;;10.10;99.90;;;;;;5040031;28;20502;-68
2021/03/11 05:06:17;;;;;;;16.48;8.93;;;10.20;99.90;;;;;;5051821;28;20624;-69
2021/03/11 05:08:43;;;;;;;16.38;9.10;;;10.20;99.90;;;;;;5051087;28;20091;-69
2021/03/11 05:11:13;;;;;;;16.48;10.20;;;10.20;99.90;;;;;;5047271;28;20025;-69
2021/03/11 05:13:40;;;;;;;18.20;10.68;;;10.10;99.90;;;;;;5050139;28;20029;-72
2021/03/11 05:16:05;;;;;;;21.35;12.30;;;10.00;99.90;;;;;;5037288;28;20045;-70
2021/03/11 05:18:31;;;;;;;22.25;11.63;;;9.80;99.90;;;;;;5051608;28;20028;-71
2021/03/11 05:20:57;;;;;;;22.13;11.93;;;9.70;99.90;;;;;;5043162;28;20092;-72
2021/03/11 05:23:22;;;;;;;26.33;11.50;;;9.70;99.90;;;;;;5044930;28;20037;-69
2021/03/11 05:25:50;;;;;;;20.50;10.05;;;9.70;99.90;;;;;;5044810;28;20030;-69
2021/03/11 05:28:16;;;;;;;23.48;10.30;;;9.70;99.90;;;;;;5045923;28;20025;-70
2021/03/11 05:30:41;;;;;;;19.40;11.00;;;9.80;99.90;;;;;;5058688;28;20052;-69
2021/03/11 05:33:07;;;;;;;19.42;9.80;;;9.80;99.90;;;;;;5047314;28;20033;-69
2021/03/11 05:55:24;;;;;;;13.73;7.20;;;10.50;99.90;;;;;;4327026;26;20091;-65
2021/03/11 05:57:50;;;;;;;13.60;6.55;;;10.50;99.90;;;;;;5054831;28;20036;-65
2021/03/11 06:00:17;;;;;;;15.00;7.28;;;10.60;99.90;;;;;;5045803;28;20025;-64
2021/03/11 06:02:44;;;;;;;12.00;6.97;;;10.50;99.90;;;;;;5056109;28;20036;-66
2021/03/11 06:05:15;;;;;;;19.60;7.45;;;10.50;99.90;;;;;;5067140;28;20240;-63
2021/03/11 06:07:45;;;;;;;13.85;5.53;;;10.50;99.90;;;;;;5062056;28;20036;-66
2021/03/11 06:10:12;;;;;;;14.10;5.80;;;10.60;99.90;;;;;;5062693;28;20017;-64
2021/03/11 06:12:38;;;;;;;12.52;5.90;;;10.50;99.90;;;;;;5060749;28;20047;-63
2021/03/11 06:15:11;;;;;;;9.38;4.78;;;10.60;99.90;;;;;;5068987;28;20020;-63
2021/03/11 06:17:39;;;;;;;9.10;5.03;;;10.50;99.90;;;;;;5060254;28;20021;-63
2021/03/11 06:20:06;;;;;;;10.93;4.80;;;10.60;99.90;;;;;;5069048;28;20033;-64
2021/03/11 06:22:32;;;;;;;10.20;5.10;;;10.60;99.90;;;;;;5037446;28;20125;-65
2021/03/11 06:24:58;;;;;;;10.38;5.32;;;10.60;99.90;;;;;;5067738;28;20092;-64
2021/03/11 06:27:24;;;;;;;20.10;5.53;;;10.60;99.90;;;;;;5063926;28;20524;-64
2021/03/11 06:29:50;;;;;;;11.25;4.53;;;10.60;99.90;;;;;;5055446;28;20039;-64
2021/03/11 06:32:16;;;;;;;13.10;4.50;;;10.70;99.90;;;;;;5065285;28;20081;-63
2021/03/11 06:34:43;;;;;;;10.73;4.55;;;10.70;99.90;;;;;;5069369;28;20028;-64
2021/03/11 06:37:33;;;;;;;8.63;4.00;;;10.70;99.90;;;;;;5040002;28;21745;-64
2021/03/11 06:40:16;;;;;;;8.80;4.60;;;10.70;99.90;;;;;;5064023;28;20043;-64
2021/03/11 06:42:42;;;;;;;8.95;4.15;;;10.70;99.90;;;;;;5063124;28;20037;-64
2021/03/11 06:45:28;;;;;;;12.07;4.03;;;10.70;99.90;;;;;;5068985;28;20083;-64
2021/03/11 06:48:27;;;;;;;9.48;3.75;;;10.70;99.90;;;;;;5058326;28;20408;-64
2021/03/11 06:50:55;;;;;;;11.85;3.88;;;10.80;99.90;;;;;;5045060;28;20049;-65
2021/03/11 06:53:20;;;;;;;14.77;4.07;;;10.70;99.90;;;;;;5045533;28;20134;-64
2021/03/11 06:55:46;;;;;;;16.15;3.95;;;10.70;99.90;;;;;;5059169;28;20123;-63
2021/03/11 06:58:20;;;;;;;15.60;4.95;;;10.60;99.90;;;;;;5060891;28;20017;-65
2021/03/11 07:00:47;;;;;;;12.82;4.00;;;10.50;99.90;;;;;;5070600;28;20521;-64
2021/03/11 07:03:13;;;;;;;16.83;3.67;;;10.50;99.90;;;;;;5072667;28;20043;-62
2021/03/11 07:05:45;;;;;;;16.35;4.50;;;10.60;99.90;;;;;;5070772;28;20162;-63
2021/03/11 07:08:16;;;;;;;23.13;3.80;;;10.50;99.90;;;;;;5066956;28;20167;-65
2021/03/11 07:10:43;;;;;;;23.58;3.60;;;10.50;99.90;;;;;;5091173;28;20020;-66
2021/03/11 07:13:09;;;;;;;24.77;4.07;;;10.60;99.90;;;;;;5071545;28;20028;-66
2021/03/11 07:15:36;;;;;;;37.65;5.18;;;10.60;99.90;;;;;;5046776;28;20021;-67
2021/03/11 16:51:06;;;;;;;16.42;2.85;;;9.00;99.90;;;;;;5055771;28;20059;-65
2021/03/11 16:53:34;;;;;;;29.98;3.25;;;9.00;99.90;;;;;;5042668;28;20442;-71
2021/03/11 16:55:59;;;;;;;25.13;3.05;;;9.10;99.90;;;;;;5041984;28;20641;-67
2021/03/11 16:58:25;;;;;;;29.00;3.78;;;9.00;99.90;;;;;;5049811;28;20108;-68
2021/03/11 17:00:50;;;;;;;26.73;4.50;;;9.10;99.90;;;;;;5037663;28;20025;-65
2021/03/11 17:03:18;;;;;;;26.08;3.95;;;9.10;99.90;;;;;;5049137;28;20025;-65
2021/03/11 17:05:44;;;;;;;29.88;4.05;;;9.10;99.90;;;;;;5049697;28;20029;-65
2021/03/11 17:08:10;;;;;;;29.77;3.90;;;9.10;99.90;;;;;;5049423;28;20052;-68
2021/03/11 17:10:35;;;;;;;29.02;3.92;;;9.10;99.90;;;;;;5048857;28;20246;-66
2021/03/11 17:13:01;;;;;;;25.75;4.13;;;9.00;99.90;;;;;;5046225;28;20017;-65
2021/03/11 17:15:26;;;;;;;22.92;3.15;;;9.00;99.90;;;;;;5043711;28;20013;-64
2021/03/11 17:17:52;;;;;;;28.85;3.63;;;9.00;99.90;;;;;;5048406;28;20335;-66
2021/03/11 17:20:18;;;;;;;19.85;3.38;;;9.00;99.90;;;;;;5049385;28;20036;-68
2021/03/11 17:22:45;;;;;;;25.90;3.75;;;9.00;99.90;;;;;;5050557;28;20033;-66
2021/03/11 17:25:11;;;;;;;34.55;4.15;;;9.00;99.90;;;;;;5048580;28;20037;-63
2021/03/11 17:27:39;;;;;;;26.92;3.42;;;9.00;99.90;;;;;;5043293;28;20040;-65
2021/03/11 17:30:06;;;;;;;17.08;3.38;;;9.00;99.90;;;;;;5049436;28;20052;-66
2021/03/11 17:32:32;;;;;;;31.58;2.80;;;9.00;99.90;;;;;;5045843;28;20043;-65
2021/03/11 17:34:57;;;;;;;23.52;3.65;;;9.00;99.90;;;;;;5047667;28;20064;-66
2021/03/11 17:37:23;;;;;;;14.98;2.65;;;9.00;99.90;;;;;;5042166;28;20391;-65
2021/03/11 17:39:48;;;;;;;27.63;3.60;;;9.00;99.90;;;;;;5045469;28;20479;-65
2021/03/11 17:42:14;;;;;;;21.83;2.83;;;9.00;99.90;;;;;;5049688;28;20585;-64
2021/03/11 17:44:40;;;;;;;24.05;4.20;;;9.00;99.90;;;;;;5047969;28;20435;-65
2021/03/11 17:47:05;;;;;;;22.65;4.35;;;9.00;99.90;;;;;;5054746;28;20047;-66
2021/03/11 17:49:31;;;;;;;18.08;3.38;;;8.90;99.90;;;;;;5054447;28;20093;-65
2021/03/11 17:51:57;;;;;;;22.88;3.10;;;8.90;99.90;;;;;;5058534;28;20053;-64
2021/03/11 17:54:23;;;;;;;29.55;2.92;;;8.90;99.90;;;;;;5067354;28;20052;-65
2021/03/11 17:56:49;;;;;;;25.17;3.05;;;8.90;99.90;;;;;;5056039;28;20068;-66
2021/03/11 17:59:14;;;;;;;30.17;3.85;;;8.90;99.90;;;;;;5068315;28;20407;-65
2021/03/11 18:01:40;;;;;;;16.95;2.72;;;8.90;99.90;;;;;;5067759;28;20032;-65
2021/03/11 18:04:05;;;;;;;20.55;2.90;;;8.80;99.90;;;;;;5065255;28;20024;-65
2021/03/11 18:06:32;;;;;;;24.00;3.72;;;8.80;99.90;;;;;;5067109;28;20127;-66
2021/03/11 18:08:57;;;;;;;20.65;3.58;;;8.80;99.90;;;;;;5066875;28;20555;-64
2021/03/11 18:11:23;;;;;;;26.30;2.85;;;8.70;99.90;;;;;;5067315;28;20016;-63
2021/03/11 18:13:48;;;;;;;18.05;3.50;;;8.70;99.90;;;;;;5068879;28;20051;-65
2021/03/11 18:16:14;;;;;;;13.05;2.75;;;8.70;99.90;;;;;;5068260;28;20098;-64
2021/03/11 18:18:40;;;;;;;12.85;1.92;;;8.70;99.90;;;;;;5048245;28;20028;-66
2021/03/11 18:21:07;;;;;;;7.20;1.48;;;8.70;99.90;;;;;;5068172;28;20120;-66
2021/03/11 18:23:33;;;;;;;10.10;1.80;;;8.80;99.90;;;;;;5066515;28;20500;-65
2021/03/11 18:25:59;;;;;;;8.77;1.30;;;8.80;99.90;;;;;;5067354;28;20162;-63
2021/03/11 18:28:28;;;;;;;6.53;1.55;;;8.80;99.90;;;;;;5067600;28;20080;-66
2021/03/11 18:30:54;;;;;;;12.50;1.73;;;8.80;99.90;;;;;;5067423;28;20021;-66
2021/03/11 18:33:19;;;;;;;9.45;1.48;;;8.80;99.90;;;;;;5068016;28;20029;-66
2021/03/11 18:35:46;;;;;;;7.75;0.98;;;8.80;99.90;;;;;;5045351;28;20033;-67
2021/03/11 18:38:12;;;;;;;10.15;1.05;;;8.70;99.90;;;;;;5070768;28;20021;-65
2021/03/11 18:40:42;;;;;;;3.53;1.02;;;8.70;99.90;;;;;;5066510;28;20101;-65
2021/03/11 18:43:07;;;;;;;8.45;1.55;;;8.70;99.90;;;;;;5067143;28;20032;-66
2021/03/11 18:45:33;;;;;;;9.65;1.42;;;8.70;99.90;;;;;;5047966;28;20021;-63
2021/03/11 18:47:58;;;;;;;6.80;1.80;;;8.60;99.90;;;;;;5067108;28;20059;-65
2021/03/11 18:50:24;;;;;;;14.80;1.40;;;8.50;99.90;;;;;;5066357;28;20100;-68
2021/03/11 18:52:50;;;;;;;8.20;1.83;;;8.50;99.90;;;;;;5063044;28;20043;-65
2021/03/11 18:55:16;;;;;;;16.13;2.08;;;8.40;99.90;;;;;;5032947;28;20026;-65
2021/03/11 18:57:43;;;;;;;10.15;1.75;;;8.30;99.90;;;;;;5044145;28;20513;-66
2021/03/11 19:00:12;;;;;;;9.95;1.35;;;8.30;99.90;;;;;;5045996;28;20036;-64
2021/03/11 19:02:38;;;;;;;4.38;0.95;;;8.20;99.90;;;;;;5045399;28;20082;-64
2021/03/11 19:05:06;;;;;;;3.10;0.60;;;8.20;99.90;;;;;;5047889;28;20114;-66
2021/03/11 19:07:32;;;;;;;6.93;1.00;;;8.10;99.90;;;;;;5047055;28;20090;-65
2021/03/11 19:09:59;;;;;;;6.25;0.73;;;8.10;99.90;;;;;;5043121;28;20037;-65
2021/03/11 19:12:24;;;;;;;1.60;0.30;;;8.10;99.90;;;;;;5039815;28;20036;-65
2021/03/11 19:14:50;;;;;;;4.78;0.95;;;8.10;99.90;;;;;;5030380;28;20033;-63
2021/03/11 19:17:15;;;;;;;11.05;1.17;;;8.00;99.90;;;;;;5049928;28;20009;-65
2021/03/11 19:19:41;;;;;;;6.38;0.98;;;8.00;99.90;;;;;;5048026;28;20585;-64
2021/03/11 19:22:06;;;;;;;7.60;1.17;;;8.00;99.90;;;;;;5035566;28;20036;-64
2021/03/11 19:24:32;;;;;;;12.43;1.77;;;7.90;99.90;;;;;;5043930;28;20100;-65
2021/03/11 19:26:58;;;;;;;8.70;1.63;;;7.90;99.90;;;;;;5048484;28;20125;-67
2021/03/11 19:29:23;;;;;;;18.45;1.98;;;7.90;99.90;;;;;;5045001;28;20099;-66
2021/03/11 19:31:49;;;;;;;15.18;1.90;;;7.90;99.90;;;;;;5052433;28;20009;-65
2021/03/11 19:34:14;;;;;;;21.55;2.65;;;7.80;99.90;;;;;;5054866;28;20029;-65
2021/03/11 19:36:41;;;;;;;14.45;2.35;;;7.80;99.90;;;;;;5050713;28;20383;-65
2021/03/11 19:39:07;;;;;;;24.80;2.92;;;7.90;99.90;;;;;;5050470;28;20013;-64
2021/03/11 19:41:33;;;;;;;11.07;1.92;;;7.80;99.90;;;;;;5061723;28;20021;-63
2021/03/11 19:43:59;;;;;;;12.10;2.38;;;7.80;99.90;;;;;;5043576;28;20060;-64
2021/03/11 19:46:24;;;;;;;23.80;2.85;;;7.80;99.90;;;;;;5045989;28;20081;-65
2021/03/11 19:48:50;;;;;;;28.40;3.03;;;7.80;99.90;;;;;;5045140;28;20715;-64
2021/03/11 19:51:16;;;;;;;30.05;3.05;;;7.80;99.90;;;;;;5055290;28;20021;-67
2021/03/11 19:53:41;;;;;;;27.98;4.43;;;7.80;99.90;;;;;;5044053;28;20125;-68
2021/03/11 19:56:07;;;;;;;22.33;2.65;;;7.80;99.90;;;;;;5050093;28;20032;-66
2021/03/11 19:58:33;;;;;;;28.27;3.78;;;7.80;99.90;;;;;;5053481;28;20037;-68
2021/03/11 20:00:58;;;;;;;15.73;2.83;;;7.80;99.90;;;;;;5047943;28;20172;-66
2021/03/11 20:03:24;;;;;;;24.98;3.47;;;7.80;99.90;;;;;;5047898;28;20029;-64
2021/03/11 20:05:49;;;;;;;19.23;3.08;;;7.80;99.90;;;;;;5058093;28;20145;-67
2021/03/11 20:08:15;;;;;;;19.40;2.75;;;7.80;99.90;;;;;;5057020;28;20025;-68
2021/03/11 20:10:41;;;;;;;29.95;3.45;;;7.80;99.90;;;;;;5048445;28;20116;-69
2021/03/11 20:13:07;;;;;;;25.50;2.80;;;7.80;99.90;;;;;;5052822;28;20016;-66
2021/03/11 20:15:34;;;;;;;31.90;3.50;;;7.80;99.90;;;;;;5049100;28;20577;-62
2021/03/11 20:18:01;;;;;;;16.45;2.38;;;7.80;99.90;;;;;;5042658;28;20747;-66
2021/03/11 20:20:29;;;;;;;35.22;3.78;;;7.80;99.90;;;;;;5050598;28;20024;-66
2021/03/11 20:22:56;;;;;;;16.38;2.85;;;7.70;99.90;;;;;;5046562;28;20173;-66
2021/03/11 20:25:25;;;;;;;24.35;2.35;;;7.70;99.90;;;;;;5045974;28;20025;-67
2021/03/11 20:27:52;;;;;;;16.23;2.92;;;7.70;99.90;;;;;;5046662;28;20119;-64
2021/03/11 20:30:18;;;;;;;17.67;3.00;;;7.70;99.90;;;;;;5047366;28;20044;-66
2021/03/11 20:32:44;;;;;;;14.55;2.67;;;7.70;99.90;;;;;;5055055;28;20116;-65
2021/03/11 20:35:10;;;;;;;23.38;3.70;;;7.70;99.90;;;;;;5047677;28;20556;-66
2021/03/11 20:37:37;;;;;;;14.18;3.95;;;7.60;99.90;;;;;;5045683;28;20351;-66
2021/03/11 20:40:07;;;;;;;18.80;2.75;;;7.60;99.90;;;;;;5045890;28;20098;-67
2021/03/11 20:42:32;;;;;;;15.70;2.63;;;7.60;99.90;;;;;;5046679;28;20440;-64
2021/03/11 20:44:58;;;;;;;17.23;2.50;;;7.60;99.90;;;;;;5046373;28;20064;-64
2021/03/11 20:47:25;;;;;;;14.05;2.75;;;7.60;99.90;;;;;;5045168;28;20025;-68
2021/03/11 20:49:50;;;;;;;11.90;2.97;;;7.50;99.90;;;;;;5044060;28;20029;-64
2021/03/11 20:52:16;;;;;;;17.90;3.25;;;7.50;99.90;;;;;;5026258;28;20090;-64
2021/03/11 20:54:41;;;;;;;29.70;3.17;;;7.50;99.90;;;;;;5044764;28;20053;-66
2021/03/11 20:57:07;;;;;;;17.42;3.42;;;7.50;99.90;;;;;;5045591;28;20040;-65
2021/03/11 20:59:34;;;;;;;28.63;2.95;;;7.40;99.90;;;;;;5044534;28;20021;-68
2021/03/11 21:02:01;;;;;;;19.63;3.78;;;7.40;99.90;;;;;;5047197;28;20604;-66
2021/03/11 21:04:27;;;;;;;23.88;2.75;;;7.50;99.90;;;;;;5043793;28;20101;-66
2021/03/11 21:06:52;;;;;;;20.77;2.67;;;7.40;99.90;;;;;;5026157;28;20497;-66
2021/03/11 21:09:18;;;;;;;20.17;3.10;;;7.40;99.90;;;;;;5048572;28;20025;-69
2021/03/11 21:11:43;;;;;;;19.27;3.60;;;7.40;99.90;;;;;;5045514;28;20203;-66
2021/03/11 21:14:09;;;;;;;30.35;4.18;;;7.50;99.90;;;;;;5045816;28;20048;-68
2021/03/11 21:16:34;;;;;;;28.13;4.00;;;7.50;99.90;;;;;;5046499;28;20557;-65
2021/03/11 21:19:01;;;;;;;29.75;3.33;;;7.50;99.90;;;;;;5047654;28;20024;-65
2021/03/11 21:21:27;;;;;;;25.98;3.75;;;7.40;99.90;;;;;;5048084;28;20039;-66
2021/03/11 21:23:53;;;;;;;32.83;3.20;;;7.40;99.90;;;;;;5046623;28;20037;-65
2021/03/11 21:26:18;;;;;;;33.05;4.07;;;7.50;99.90;;;;;;5047700;28;20476;-67
2021/03/11 21:28:44;;;;;;;23.13;3.38;;;7.40;99.90;;;;;;5042439;28;20085;-67
2021/03/11 21:31:10;;;;;;;27.23;3.25;;;7.50;99.90;;;;;;5047995;28;20063;-66
2021/03/11 21:33:36;;;;;;;22.95;3.70;;;7.50;99.90;;;;;;5046113;28;20550;-68
2021/03/11 21:36:03;;;;;;;19.42;2.97;;;7.50;99.90;;;;;;5047992;28;20250;-64
2021/03/11 21:38:28;;;;;;;30.05;3.97;;;7.50;99.90;;;;;;5045543;28;20036;-64
2021/03/11 21:40:54;;;;;;;25.75;2.72;;;7.50;99.90;;;;;;5044999;28;20033;-64
2021/03/11 21:43:21;;;;;;;31.33;3.67;;;7.50;99.90;;;;;;5055570;28;20031;-67
2021/03/11 21:45:48;;;;;;;20.90;3.25;;;7.50;99.90;;;;;;5048596;28;20124;-65
2021/03/11 21:48:16;;;;;;;31.58;3.60;;;7.50;99.90;;;;;;5049148;28;20029;-65
2021/03/11 21:50:42;;;;;;;27.30;3.10;;;7.50;99.90;;;;;;5050910;28;20029;-65
2021/03/11 21:53:09;;;;;;;20.17;2.90;;;7.40;99.90;;;;;;5064371;28;20052;-65
2021/03/11 21:55:34;;;;;;;21.05;2.78;;;7.40;99.90;;;;;;5075258;28;20046;-66
2021/03/11 21:58:00;;;;;;;18.75;2.40;;;7.40;99.90;;;;;;5071971;28;20020;-67
2021/03/11 22:00:28;;;;;;;22.27;2.45;;;7.40;99.90;;;;;;5070721;28;20039;-65
2021/03/11 22:02:54;;;;;;;14.90;2.22;;;7.40;99.90;;;;;;5066870;28;20095;-69
2021/03/11 22:05:21;;;;;;;28.40;3.67;;;7.40;99.90;;;;;;5069010;28;20100;-63
2021/03/11 22:07:48;;;;;;;22.40;2.78;;;7.40;99.90;;;;;;5068223;28;20028;-64
2021/03/11 22:10:19;;;;;;;14.95;2.65;;;7.40;99.90;;;;;;5068643;28;20371;-64
2021/03/11 22:12:45;;;;;;;22.42;3.78;;;7.40;99.90;;;;;;5069272;28;20036;-64
2021/03/11 22:15:12;;;;;;;26.10;2.55;;;7.40;99.90;;;;;;5067536;28;20028;-64
2021/03/11 22:17:38;;;;;;;22.35;2.88;;;7.40;99.90;;;;;;5069349;28;20111;-66
2021/03/11 22:20:04;;;;;;;25.20;3.95;;;7.40;99.90;;;;;;5068025;28;20063;-65
2021/03/11 22:22:30;;;;;;;23.65;2.97;;;7.30;99.90;;;;;;5070151;28;20215;-65
2021/03/11 22:24:56;;;;;;;22.27;2.78;;;7.40;99.90;;;;;;5068113;28;20071;-66
2021/03/11 22:27:21;;;;;;;24.00;3.22;;;7.40;99.90;;;;;;5065925;28;20090;-65
2021/03/11 22:29:47;;;;;;;23.17;3.92;;;7.30;99.90;;;;;;5067266;28;20039;-67
2021/03/11 22:32:14;;;;;;;22.92;3.28;;;7.40;99.90;;;;;;5068086;28;20016;-67
2021/03/11 22:34:41;;;;;;;19.13;2.78;;;7.40;99.90;;;;;;5069909;28;20017;-64